Terminal Aerodrome Forecast
Issued by NWS Charleston, WV

Home | Current Version | Previous Version | Text Only | Print | Product List | Glossary On
Versions: 1 2 3 4 5 6 7 8 9 10 11 12 13 14 15 16 17 18 19 20 21 22 23 24 25 26 27
000
FTUS41 KRLX 050211 AAA
TAFBKW
TAF AMD
KBKW 050211Z 0502/0524 VRB03KT 6SM BR SCT060 BKN250
     FM050600 VRB02KT 5SM BR SCT007 BKN200
     FM050800 14002KT 3SM BR SCT002 OVC006
     FM051200 15002KT 6SM BR OVC010
     FM051400 14004KT 6SM -SHRA SCT012 OVC030
     FM051600 12006KT 3SM SHRA VCTS BKN015 OVC025CB=

USA.gov is the U.S. government's official web portal to all federal, state and local government web resources and services.